Flight Track Log - Related Links

Times and Time Zones

All times are in EDT time to prevent confusion due to time zone crossing. See the ELY397 flight status page for this flight to view local times or setup timezone preferences in your user account.

Time Position Orientation Groundspeed Altitude Reporting Facility
EDT Latitude Longitude Course Direction KTS MPH feet Rate Location/Type
Mon 10:36:32 AM 32.5151 33.6561 296° West  Level Estimated
Mon 10:37:32 AM 32.5625 33.5395 296° West  Level Estimated
Mon 10:38:32 AM 32.6098 33.4228 296° West  Level Estimated
Mon 10:39:32 AM 32.6570 33.3060 296° West  Level Estimated
Mon 10:40:32 AM 32.7040 33.1890 296° West  Level Estimated
Mon 10:41:32 AM 32.7510 33.0719 295° West  Level Estimated
Mon 10:42:32 AM 32.7978 32.9547 295° West  Level Estimated
Mon 10:43:32 AM 32.8446 32.8373 295° West  Level Estimated
Mon 10:44:32 AM 32.8912 32.7198 295° West  Level Estimated
Mon 10:45:32 AM 32.9377 32.6023 295° West  Level Estimated
Mon 10:46:32 AM 32.9841 32.4846 295° West  Level Estimated
Mon 10:47:32 AM 33.0304 32.3667 295° West  Level Estimated
Mon 10:48:32 AM 33.0766 32.2487 295° West  Level Estimated
Mon 10:49:32 AM 33.1227 32.1307 295° West  Level Estimated
Mon 10:50:32 AM 33.1686 32.0125 295° West  Level Estimated
Mon 10:51:32 AM 33.2145 31.8941 295° West  Level Estimated
Mon 10:52:32 AM 33.2602 31.7757 295° West  Level Estimated
Mon 10:53:32 AM 33.3058 31.6571 295° West  Level Estimated
Mon 10:54:32 AM 33.3513 31.5384 295° West  Level Estimated
Mon 10:55:32 AM 33.3967 31.4195 295° West  Level Estimated
Mon 10:56:32 AM 33.4420 31.3006 294° West  Level Estimated
Mon 10:57:32 AM 33.4872 31.1815 294° West  Level Estimated
Mon 10:58:32 AM 33.5323 31.0623 294° West  Level Estimated
Mon 10:59:32 AM 33.5772 30.9430 294° West  Level Estimated
Mon 11:00:32 AM 33.6220 30.8235 294° West  Level Estimated
Mon 11:01:32 AM 33.6668 30.7040 294° West  Level Estimated
Mon 11:02:32 AM 33.7113 30.5843 294° West  Level Estimated
Mon 11:03:32 AM 33.7558 30.4644 294° West  Level Estimated
Mon 11:04:32 AM 33.8002 30.3445 294° West  Level Estimated
Mon 11:05:32 AM 33.8445 30.2244 294° West  Level Estimated
Mon 11:06:32 AM 33.8886 30.1042 294° West  Level Estimated
Mon 11:07:32 AM 33.9326 29.9839 294° West  Level Estimated
Mon 11:08:32 AM 33.9765 29.8635 294° West  Level Estimated
Mon 11:09:32 AM 34.0203 29.7429 294° West  Level Estimated
Mon 11:10:32 AM 34.0640 29.6222 294° West  Level Estimated
Mon 11:11:32 AM 34.1075 29.5014 293° West  Level Estimated
Mon 11:12:32 AM 34.1509 29.3804 293° West  Level Estimated
Mon 11:13:32 AM 34.1942 29.2594 293° West  Level Estimated
Mon 11:14:32 AM 34.2374 29.1382 293° West  Level Estimated
Mon 11:15:32 AM 34.2805 29.0169 293° West  Level Estimated
Mon 11:16:32 AM 34.3235 28.8954 293° West  Level Estimated
Mon 11:17:32 AM 34.3663 28.7739 293° West  Level Estimated
Mon 11:18:32 AM 34.4090 28.6522 293° West  Level Estimated
Mon 11:19:32 AM 34.4516 28.5304 293° West  Level Estimated
Mon 11:20:32 AM 34.4941 28.4084 293° West  Level Estimated
Mon 11:21:32 AM 34.5364 28.2864 293° West  Level Estimated
Mon 11:22:32 AM 34.5786 28.1642 293° West  Level Estimated
Mon 11:23:32 AM 34.6208 28.0419 293° West  Level Estimated
Mon 11:24:32 AM 34.6627 27.9195 293° West  Level Estimated
Mon 11:25:32 AM 34.7046 27.7969 293° West  Level Estimated
Mon 11:26:32 AM 34.7463 27.6742 292° West  Level Estimated
Mon 11:27:32 AM 34.7879 27.5514 292° West  Level Estimated
Mon 11:28:32 AM 34.8294 27.4285 292° West  Level Estimated
Mon 11:29:32 AM 34.8708 27.3055 292° West  Level Estimated
Mon 11:30:32 AM 34.9121 27.1823 292° West  Level Estimated
Mon 11:31:32 AM 34.9532 27.0590 292° West  Level Estimated
Mon 11:32:32 AM 34.9942 26.9356 292° West  Level Estimated
Mon 11:33:32 AM 35.0350 26.8120 292° West  Level Estimated
Mon 11:34:32 AM 35.0758 26.6884 292° West  Level Estimated
Mon 11:35:32 AM 35.1164 26.5646 292° West  Level Estimated
Mon 11:36:32 AM 35.1569 26.4407 292° West  Level Estimated
Mon 11:37:32 AM 35.1973 26.3166 292° West  Level Estimated
Mon 11:38:32 AM 35.2375 26.1925 292° West  Level Estimated
Mon 11:39:32 AM 35.2776 26.0682 292° West  Level Estimated
Mon 11:40:32 AM 35.3176 25.9438 291° West  Level Estimated
Mon 11:41:32 AM 35.3575 25.8192 291° West  Level Estimated
Mon 11:42:32 AM 35.3972 25.6946 291° West  Level Estimated
Mon 11:43:32 AM 35.4368 25.5698 291° West  Level Estimated
Mon 11:44:32 AM 35.4763 25.4449 291° West  Level Estimated
Mon 11:45:32 AM 35.5156 25.3199 291° West  Level Estimated
Mon 11:46:32 AM 35.5548 25.1947 291° West  Level Estimated
Mon 11:47:32 AM 35.5939 25.0695 291° West  Level Estimated
Mon 11:48:32 AM 35.6329 24.9441 291° West  Level Estimated
Mon 11:49:32 AM 35.6717 24.8186 291° West  Level Estimated
Mon 11:50:32 AM 35.7104 24.6930 291° West  Level Estimated
Mon 11:51:32 AM 35.7490 24.5672 291° West  Level Estimated
Mon 11:52:32 AM 35.7874 24.4413 291° West  Level Estimated
Mon 11:53:32 AM 35.8257 24.3153 291° West  Level Estimated
Mon 11:54:32 AM 35.8639 24.1892 290° West  Level Estimated
Mon 11:55:32 AM 35.9019 24.0630 290° West  Level Estimated
Mon 11:56:32 AM 35.9398 23.9366 290° West  Level Estimated
Mon 11:57:32 AM 35.9776 23.8101 290° West  Level Estimated
Mon 11:58:32 AM 36.0153 23.6835 290° West  Level Estimated
Mon 11:59:32 AM 36.0528 23.5568 290° West  Level Estimated
Mon 12:00:32 PM 36.0901 23.4300 290° West  Level Estimated
Mon 12:01:32 PM 36.1274 23.3030 290° West  Level Estimated
Mon 12:02:32 PM 36.1645 23.1759 290° West  Level Estimated
Mon 12:03:32 PM 36.2015 23.0487 290° West  Level Estimated
Mon 12:04:32 PM 36.2383 22.9214 290° West  Level Estimated
Mon 12:05:32 PM 36.2750 22.7940 290° West  Level Estimated
Mon 12:06:32 PM 36.3116 22.6664 290° West  Level Estimated
Mon 12:07:32 PM 36.3480 22.5387 289° West  Level Estimated
Mon 12:08:32 PM 36.3843 22.4109 289° West  Level Estimated
Mon 12:09:32 PM 36.4205 22.2830 289° West  Level Estimated
Mon 12:10:32 PM 36.4565 22.1550 289° West  Level Estimated
Mon 12:11:32 PM 36.4924 22.0268 289° West  Level Estimated
Mon 12:12:32 PM 36.5281 21.8985 289° West  Level Estimated
Mon 12:13:32 PM 36.5637 21.7701 289° West  Level Estimated
Mon 12:14:32 PM 36.5992 21.6416 289° West  Level Estimated
Mon 12:15:32 PM 36.6345 21.5130 289° West  Level Estimated
Mon 12:16:32 PM 36.6697 21.3842 289° West  Level Estimated
Mon 12:17:32 PM 36.7048 21.2554 289° West  Level Estimated
Mon 12:18:32 PM 36.7397 21.1264 289° West  Level Estimated
Mon 12:19:32 PM 36.7745 20.9973 289° West  Level Estimated
Mon 12:20:32 PM 36.8091 20.8681 288° West  Level Estimated
Mon 12:21:32 PM 36.8436 20.7387 288° West  Level Estimated
Mon 12:22:32 PM 36.8780 20.6093 288° West  Level Estimated
Mon 12:23:32 PM 36.9122 20.4797 288° West  Level Estimated
Mon 12:24:32 PM 36.9463 20.3500 288° West  Level Estimated
Mon 12:25:32 PM 36.9802 20.2202 288° West  Level Estimated
Mon 12:26:32 PM 37.0140 20.0903 288° West  Level Estimated
Mon 12:27:32 PM 37.0477 19.9603 288° West  Level Estimated
Mon 12:28:32 PM 37.0812 19.8301 288° West  Level Estimated
Mon 12:29:32 PM 37.1146 19.6999 288° West  Level Estimated
Mon 12:30:32 PM 37.1478 19.5695 288° West  Level Estimated
Mon 12:31:32 PM 37.1809 19.4390 288° West  Level Estimated
Mon 12:32:32 PM 37.2138 19.3084 288° West  Level Estimated
Mon 12:33:32 PM 37.2466 19.1777 287° West  Level Estimated
Mon 12:34:32 PM 37.2793 19.0468 287° West  Level Estimated
Mon 12:35:32 PM 37.3118 18.9159 287° West  Level Estimated
Mon 12:36:32 PM 37.3442 18.7848 287° West  Level Estimated
Mon 12:37:32 PM 37.3764 18.6536 287° West  Level Estimated
Mon 12:38:32 PM 37.4085 18.5224 287° West  Level Estimated
Mon 12:39:32 PM 37.4404 18.3910 287° West  Level Estimated
Mon 12:40:32 PM 37.4722 18.2595 287° West  Level Estimated
Mon 12:41:32 PM 37.5038 18.1278 287° West  Level Estimated
Mon 12:42:32 PM 37.5353 17.9961 287° West  Level Estimated
Mon 12:43:32 PM 37.5667 17.8643 287° West  Level Estimated
Mon 12:44:32 PM 37.5979 17.7323 287° West  Level Estimated
Mon 12:45:32 PM 37.6289 17.6003 286° West  Level Estimated
Mon 12:46:32 PM 37.6598 17.4681 286° West  Level Estimated
Mon 12:47:32 PM 37.6906 17.3358 286° West  Level Estimated
Mon 12:48:32 PM 37.7212 17.2034 286° West  Level Estimated
Mon 12:49:32 PM 37.7517 17.0709 286° West  Level Estimated
Mon 12:50:32 PM 37.7820 16.9383 286° West  Level Estimated
Mon 12:51:32 PM 37.8121 16.8056 286° West  Level Estimated
Mon 12:52:32 PM 37.8422 16.6728 286° West  Level Estimated
Mon 12:53:32 PM 37.8720 16.5398 286° West  Level Estimated
Mon 12:54:32 PM 37.9017 16.4068 286° West  Level Estimated
Mon 12:55:32 PM 37.9313 16.2736 286° West  Level Estimated
Mon 12:56:32 PM 37.9607 16.1404 286° West  Level Estimated
Mon 12:57:32 PM 37.9900 16.0070 286° West  Level Estimated
Mon 12:58:32 PM 38.0191 15.8735 285° West  Level Estimated
Mon 12:59:32 PM 38.0481 15.7400 285° West  Level Estimated
Mon 01:00:32 PM 38.0769 15.6063 285° West  Level Estimated
Mon 01:01:32 PM 38.1056 15.4725 285° West  Level Estimated
Mon 01:02:32 PM 38.1341 15.3386 285° West  Level Estimated
Mon 01:03:32 PM 38.1624 15.2046 285° West  Level Estimated
Mon 01:04:32 PM 38.1907 15.0705 285° West  Level Estimated
Mon 01:05:32 PM 38.2187 14.9363 285° West  Level Estimated
Mon 01:06:32 PM 38.2466 14.8020 285° West  Level Estimated
Mon 01:07:32 PM 38.2743 14.6676 285° West  Level Estimated
Mon 01:08:32 PM 38.3019 14.5331 285° West  Level Estimated
Mon 01:09:32 PM 38.3294 14.3984 285° West  Level Estimated
Mon 01:10:32 PM 38.3567 14.2637 284° West  Level Estimated
Mon 01:11:32 PM 38.3838 14.1289 284° West  Level Estimated
Mon 01:12:32 PM 38.4108 13.9940 284° West  Level Estimated
Mon 01:13:32 PM 38.4376 13.8590 284° West  Level Estimated
Mon 01:14:32 PM 38.4643 13.7239 284° West  Level Estimated
Mon 01:15:32 PM 38.4908 13.5886 284° West  Level Estimated
Mon 01:16:32 PM 38.5171 13.4533 284° West  Level Estimated
Mon 01:17:32 PM 38.5433 13.3179 284° West  Level Estimated
Mon 01:18:32 PM 38.5694 13.1824 284° West  Level Estimated
Mon 01:19:32 PM 38.5953 13.0468 284° West  Level Estimated
Mon 01:20:32 PM 38.6210 12.9111 284° West  Level Estimated
Mon 01:21:32 PM 38.6466 12.7753 284° West  Level Estimated
Mon 01:22:32 PM 38.6720 12.6393 283° West  Level Estimated
Mon 01:23:32 PM 38.6973 12.5034 283° West  Level Estimated
Mon 01:24:32 PM 38.7224 12.3673 283° West  Level Estimated
Mon 01:25:32 PM 38.7473 12.2311 283° West  Level Estimated
Mon 01:26:32 PM 38.7721 12.0948 283° West  Level Estimated
Mon 01:27:32 PM 38.7967 11.9584 283° West  Level Estimated
Mon 01:28:32 PM 38.8212 11.8219 283° West  Level Estimated
Mon 01:29:32 PM 38.8455 11.6854 283° West  Level Estimated
Mon 01:30:32 PM 38.8697 11.5487 283° West  Level Estimated
Mon 01:31:32 PM 38.8936 11.4119 283° West  Level Estimated
Mon 01:32:32 PM 38.9175 11.2751 283° West  Level Estimated
Mon 01:33:32 PM 38.9411 11.1382 282° West  Level Estimated
Mon 01:34:32 PM 38.9646 11.0011 282° West  Level Estimated
Mon 01:35:32 PM 38.9880 10.8640 282° West  Level Estimated
Mon 01:36:32 PM 39.0112 10.7268 282° West  Level Estimated
Mon 01:37:32 PM 39.0342 10.5895 282° West  Level Estimated
Mon 01:38:32 PM 39.0571 10.4521 282° West  Level Estimated
Mon 01:39:32 PM 39.0798 10.3146 282° West  Level Estimated
Mon 01:40:32 PM 39.1023 10.1770 282° West  Level Estimated
Mon 01:41:32 PM 39.1247 10.0394 282° West  Level Estimated
Mon 01:42:32 PM 39.1469 9.9017 282° West  Level Estimated
Mon 01:43:32 PM 39.1690 9.7638 282° West  Level Estimated
Mon 01:44:32 PM 39.1909 9.6259 282° West  Level Estimated
Mon 01:45:32 PM 39.2127 9.4879 281° West  Level Estimated
Mon 01:46:32 PM 39.2342 9.3498 281° West  Level Estimated
Mon 01:47:32 PM 39.2556 9.2117 281° West  Level Estimated
Mon 01:48:32 PM 39.2769 9.0734 281° West  Level Estimated
Mon 01:49:32 PM 39.2980 8.9351 281° West  Level Estimated
Mon 01:50:32 PM 39.3189 8.7967 281° West  Level Estimated
Mon 01:51:32 PM 39.3396 8.6582 281° West  Level Estimated
Mon 01:52:32 PM 39.3602 8.5196 281° West  Level Estimated
Mon 01:53:32 PM 39.3806 8.3809 281° West  Level Estimated
Mon 01:54:32 PM 39.4009 8.2422 281° West  Level Estimated
Mon 01:55:32 PM 39.4210 8.1033 281° West  Level Estimated
Mon 01:56:32 PM 39.4409 7.9644 280° West  Level Estimated
Mon 01:57:32 PM 39.4607 7.8254 280° West  Level Estimated
Mon 01:58:32 PM 39.4803 7.6864 280° West  Level Estimated
Mon 01:59:32 PM 39.4997 7.5472 280° West  Level Estimated
Mon 02:00:32 PM 39.5190 7.4080 280° West  Level Estimated
Mon 02:01:32 PM 39.5381 7.2687 280° West  Level Estimated
Mon 02:02:32 PM 39.5570 7.1293 280° West  Level Estimated
Mon 02:03:32 PM 39.5758 6.9899 280° West  Level Estimated
Mon 02:04:32 PM 39.5944 6.8504 280° West  Level Estimated
Mon 02:05:32 PM 39.6129 6.7108 280° West  Level Estimated
Mon 02:06:32 PM 39.6311 6.5711 280° West  Level Estimated
Mon 02:07:32 PM 39.6492 6.4314 280° West  Level Estimated
Mon 02:08:32 PM 39.6672 6.2915 279° West  Level Estimated
Mon 02:09:32 PM 39.6849 6.1516 279° West  Level Estimated
Mon 02:10:32 PM 39.7025 6.0117 279° West  Level Estimated
Mon 02:11:32 PM 39.7200 5.8717 279° West  Level Estimated
Mon 02:12:32 PM 39.7372 5.7316 279° West  Level Estimated
Mon 02:13:32 PM 39.7543 5.5914 279° West  Level Estimated
Mon 02:14:32 PM 39.7712 5.4511 279° West  Level Estimated
Mon 02:15:32 PM 39.7880 5.3108 279° West  Level Estimated
Mon 02:16:32 PM 39.8046 5.1705 279° West  Level Estimated
Mon 02:17:32 PM 39.8210 5.0300 279° West  Level Estimated
Mon 02:18:32 PM 39.8373 4.8895 279° West  Level Estimated
Mon 02:19:32 PM 39.8533 4.7489 278° West  Level Estimated
Mon 02:20:32 PM 39.8693 4.6083 278° West  Level Estimated
Mon 02:21:32 PM 39.8850 4.4675 278° West  Level Estimated
Mon 02:22:32 PM 39.9006 4.3268 278° West  Level Estimated
Mon 02:23:32 PM 39.9160 4.1859 278° West  Level Estimated
Mon 02:24:32 PM 39.9312 4.0450 278° West  Level Estimated
Mon 02:25:32 PM 39.9463 3.9041 278° West  Level Estimated
Mon 02:26:32 PM 39.9611 3.7630 278° West  Level Estimated
Mon 02:27:32 PM 39.9759 3.6219 278° West  Level Estimated
Mon 02:28:32 PM 39.9904 3.4808 278° West  Level Estimated
Mon 02:29:32 PM 40.0048 3.3396 278° West  Level Estimated
Mon 02:30:32 PM 40.0190 3.1983 277° West  Level Estimated
Mon 02:31:32 PM 40.0330 3.0570 277° West  Level Estimated
Mon 02:32:32 PM 40.0469 2.9156 277° West  Level Estimated
Mon 02:33:32 PM 40.0606 2.7742 277° West  Level Estimated
Mon 02:34:32 PM 40.0741 2.6327 277° West  Level Estimated
Mon 02:35:32 PM 40.0874 2.4911 277° West  Level Estimated
Mon 02:36:32 PM 40.1006 2.3495 277° West  Level Estimated
Mon 02:37:32 PM 40.1136 2.2079 277° West  Level Estimated
Mon 02:38:32 PM 40.1264 2.0661 277° West  Level Estimated
Mon 02:39:32 PM 40.1391 1.9244 277° West  Level Estimated
Mon 02:40:32 PM 40.1516 1.7825 277° West  Level Estimated
Mon 02:41:32 PM 40.1639 1.6407 276° West  Level Estimated
Mon 02:42:32 PM 40.1760 1.4988 276° West  Level Estimated
Mon 02:43:32 PM 40.1880 1.3568 276° West  Level Estimated
Mon 02:44:32 PM 40.1997 1.2148 276° West  Level Estimated
Mon 02:45:32 PM 40.2114 1.0727 276° West  Level Estimated
Mon 02:46:32 PM 40.2228 0.9306 276° West  Level Estimated
Mon 02:47:32 PM 40.2341 0.7884 276° West  Level Estimated
Mon 02:48:32 PM 40.2452 0.6462 276° West  Level Estimated
Mon 02:49:32 PM 40.2561 0.5039 276° West  Level Estimated
Mon 02:50:32 PM 40.2668 0.3616 276° West  Level Estimated
Mon 02:51:32 PM 40.2774 0.2193 276° West  Level Estimated
Mon 02:52:32 PM 40.2878 0.0769 275° West  Level Estimated
Mon 02:53:32 PM 40.2980 -0.0656 275° West  Level Estimated
Mon 02:54:32 PM 40.3080 -0.2080 275° West  Level Estimated
Mon 02:55:32 PM 40.3179 -0.3506 275° West  Level Estimated
Mon 02:56:32 PM 40.3276 -0.4931 275° West  Level Estimated
Mon 02:57:32 PM 40.3371 -0.6358 275° West  Level Estimated
Mon 02:58:32 PM 40.3465 -0.7784 275° West  Level Estimated
Mon 02:59:32 PM 40.3557 -0.9211 275° West  Level Estimated
Mon 03:00:32 PM 40.3647 -1.0638 275° West  Level Estimated
Mon 03:01:32 PM 40.3735 -1.2066 275° West  Level Estimated
Mon 03:02:32 PM 40.3821 -1.3494 274° West  Level Estimated
Mon 03:03:32 PM 40.3906 -1.4922 274° West  Level Estimated
Mon 03:04:32 PM 40.3989 -1.6351 274° West  Level Estimated
Mon 03:05:32 PM 40.4070 -1.7780 274° West  Level Estimated
Mon 03:06:32 PM 40.4149 -1.9209 274° West  Level Estimated
Mon 03:07:32 PM 40.4227 -2.0639 274° West  Level Estimated
Mon 03:08:32 PM 40.4303 -2.2069 274° West  Level Estimated
Mon 03:09:32 PM 40.4377 -2.3500 274° West  Level Estimated
Mon 03:10:32 PM 40.4449 -2.4930 274° West  Level Estimated
Mon 03:11:32 PM 40.4520 -2.6361 274° West  Level Estimated
Mon 03:12:32 PM 40.4589 -2.7793 274° West  Level Estimated
Mon 03:13:32 PM 40.4656 -2.9224 273° West  Level Estimated
Mon 03:14:32 PM 40.4721 -3.0656 273° West  Level Estimated
Mon 03:15:32 PM 40.4785 -3.2088 273° West  Level Estimated
Mon 03:16:32 PM 40.4846 -3.3521 273° West  Level Estimated
Mon 03:17:32 PM 40.4906 -3.4953 273° West  Level Estimated
Mon 03:18:32 PM 40.4964 -3.6386 93° East  Level Estimated
Mon 03:19:32 PM 40.4906 -3.4953 273° West  Level Estimated
Mon 03:20:32 PM 40.4964 -3.6386 93° East  Level Estimated
Mon 03:21:32 PM 40.4906 -3.4953 273° West  Level Estimated
Mon 03:22:32 PM 40.4964 -3.6386 93° East  Level Estimated
Mon 03:23:32 PM 40.4906 -3.4953 273° West  Level Estimated
Mon 03:24:32 PM 40.4964 -3.6386 93° East  Level Estimated
Mon 03:25:32 PM 40.4906 -3.4953 273° West  Level Estimated
Mon 03:26:32 PM 40.4964 -3.6386 93° East  Level Estimated
Mon 03:27:32 PM 40.4906 -3.4953 273° West  Level Estimated
Mon 03:28:32 PM 40.4964 -3.6386 93° East  Level Estimated
Mon 03:29:32 PM 40.4906 -3.4953 273° West  Level Estimated
Mon 03:30:32 PM 40.4964 -3.6386 93° East  Level Estimated
Mon 03:31:32 PM 40.4906 -3.4953 273° West  Level Estimated
Mon 03:32:32 PM 40.4964 -3.6386 93° East  Level Estimated
Mon 03:33:32 PM 40.4906 -3.4953 93° East  Level Estimated

Login

Don't have an account? Register now (free) for customized features, flight alerts, and more!